Time;durP1;ratioP1;P1;durP2;ratioP2;P2;SDS_P1;SDS_P2;PMS_P1;PMS_P2;Temp;Humidity;BMP_temperature;BMP_pressure;BME280_temperature;BME280_humidity;BME280_pressure;Samples;Min_cycle;Max_cycle;Signal;HPM_P1;HPM_P2
2020/12/26 00:01:14;;;;;;;0.80;0.40;;;4.60;99.90;;;;;;4842264;29;20185;-91
2020/12/26 00:03:40;;;;;;;1.50;0.53;;;4.70;99.90;;;;;;4843680;29;20204;-90
2020/12/26 00:06:06;;;;;;;0.63;0.63;;;4.80;99.90;;;;;;4841912;29;20247;-90
2020/12/26 00:08:35;;;;;;;0.20;0.20;;;4.80;99.90;;;;;;4858776;29;20269;-90
2020/12/26 00:11:07;;;;;;;0.20;0.20;;;4.80;99.90;;;;;;4844698;29;20303;-90
2020/12/26 00:13:32;;;;;;;0.30;0.30;;;4.90;99.90;;;;;;4841252;29;20243;-92
2020/12/26 00:15:58;;;;;;;0.17;0.17;;;4.90;99.90;;;;;;4826845;29;20196;-91
2020/12/26 00:18:24;;;;;;;0.53;0.43;;;4.90;99.90;;;;;;4829724;29;21031;-92
2020/12/26 00:20:50;;;;;;;0.10;0.10;;;4.90;99.90;;;;;;4825445;29;20243;-90
2020/12/26 00:23:15;;;;;;;0.33;0.20;;;4.90;99.90;;;;;;4825744;29;20239;-91
2020/12/26 00:25:41;;;;;;;0.23;0.23;;;4.90;99.90;;;;;;4830079;29;20221;-90
2020/12/26 00:28:07;;;;;;;1.30;0.70;;;4.90;99.90;;;;;;4848079;29;20191;-91
2020/12/26 00:30:33;;;;;;;0.37;0.37;;;4.90;99.90;;;;;;4842749;29;20669;-91
2020/12/26 00:32:59;;;;;;;1.90;0.50;;;4.90;99.90;;;;;;4841554;29;20241;-90
2020/12/26 00:35:25;;;;;;;0.43;0.20;;;4.90;99.90;;;;;;4855834;29;21210;-90
2020/12/26 00:37:52;;;;;;;0.20;0.20;;;4.90;99.90;;;;;;4840841;29;20586;-93
2020/12/26 00:40:18;;;;;;;0.20;0.20;;;4.80;99.90;;;;;;4840559;29;20785;-94
2020/12/26 00:42:43;;;;;;;0.83;0.60;;;4.80;99.90;;;;;;4843762;29;20232;-90
2020/12/26 00:45:09;;;;;;;0.10;0.10;;;4.80;99.90;;;;;;4826239;29;20323;-90
2020/12/26 00:47:35;;;;;;;0.70;0.70;;;4.80;99.90;;;;;;4841293;29;20225;-91
2020/12/26 00:50:01;;;;;;;4.43;1.80;;;4.80;99.90;;;;;;4856762;29;20222;-92
2020/12/26 00:52:29;;;;;;;0.20;0.20;;;4.90;99.90;;;;;;4827358;29;20871;-90
2020/12/26 00:54:55;;;;;;;2.03;0.63;;;4.90;99.90;;;;;;4825806;29;20333;-93
2020/12/26 00:57:21;;;;;;;1.07;0.40;;;4.90;99.90;;;;;;4844231;29;20224;-91
2020/12/26 00:59:47;;;;;;;0.10;0.10;;;4.90;99.90;;;;;;4841537;29;20628;-90
2020/12/26 01:02:12;;;;;;;0.50;0.50;;;5.00;99.90;;;;;;4827047;29;21141;-93
2020/12/26 01:04:38;;;;;;;0.27;0.27;;;5.00;99.90;;;;;;4826190;29;20272;-91
2020/12/26 01:07:04;;;;;;;0.30;0.30;;;5.00;99.90;;;;;;4826222;29;20199;-91
2020/12/26 01:09:30;;;;;;;0.20;0.20;;;5.00;99.90;;;;;;4827163;29;20200;-91
2020/12/26 01:11:59;;;;;;;0.20;0.20;;;5.00;99.90;;;;;;4842228;29;20533;-92
2020/12/26 01:14:25;;;;;;;0.17;0.17;;;5.00;99.90;;;;;;4843737;29;20232;-90
2020/12/26 01:16:51;;;;;;;0.27;0.27;;;4.90;99.90;;;;;;4829841;29;20395;-93
2020/12/26 01:19:18;;;;;;;0.20;0.20;;;5.00;99.90;;;;;;4844818;29;20684;-92
2020/12/26 01:21:50;;;;;;;0.30;0.30;;;4.90;99.90;;;;;;4862803;29;20265;-91
2020/12/26 01:24:17;;;;;;;0.20;0.20;;;5.00;99.90;;;;;;4861383;29;20224;-91
2020/12/26 01:26:53;;;;;;;0.33;0.33;;;5.00;99.90;;;;;;4846212;29;20212;-91
2020/12/26 01:29:19;;;;;;;0.30;0.30;;;5.00;99.90;;;;;;4860346;29;20228;-94
2020/12/26 01:31:49;;;;;;;0.30;0.30;;;4.90;99.90;;;;;;4844612;29;20248;-91
2020/12/26 01:34:15;;;;;;;0.30;0.30;;;4.90;99.90;;;;;;4844757;29;20265;-93
2020/12/26 01:36:41;;;;;;;0.20;0.20;;;4.80;99.90;;;;;;4829117;29;20192;-92
2020/12/26 01:39:07;;;;;;;0.10;0.10;;;4.80;99.90;;;;;;4827104;29;20287;-93
2020/12/26 01:41:33;;;;;;;0.20;0.20;;;4.70;99.90;;;;;;4845972;29;20224;-91
2020/12/26 01:44:01;;;;;;;0.60;0.40;;;4.70;99.90;;;;;;4845075;29;20239;-92
2020/12/26 01:46:30;;;;;;;0.33;0.33;;;4.60;99.90;;;;;;4861133;29;20217;-92
2020/12/26 01:48:56;;;;;;;0.87;0.60;;;4.60;99.90;;;;;;4861586;29;20700;-94
2020/12/26 01:51:24;;;;;;;0.30;0.30;;;4.60;99.90;;;;;;4846720;29;20205;-91
2020/12/26 01:53:50;;;;;;;0.40;0.40;;;4.60;99.90;;;;;;4860353;29;20232;-91
2020/12/26 01:56:17;;;;;;;0.20;0.20;;;4.60;99.90;;;;;;4826760;29;20259;-93
2020/12/26 01:58:43;;;;;;;0.27;0.20;;;4.50;99.90;;;;;;4844440;29;20220;-92
2020/12/26 02:01:11;;;;;;;0.53;0.53;;;4.50;99.90;;;;;;4842428;29;20263;-92
2020/12/26 02:03:40;;;;;;;0.37;0.27;;;4.40;99.90;;;;;;4846081;29;20207;-91
2020/12/26 02:06:10;;;;;;;0.60;0.33;;;4.40;99.90;;;;;;4843440;29;20232;-91
2020/12/26 02:08:37;;;;;;;0.30;0.30;;;4.40;99.90;;;;;;4844684;29;20228;-92
2020/12/26 02:11:06;;;;;;;0.20;0.20;;;4.30;99.90;;;;;;4843695;29;20227;-92
2020/12/26 02:13:34;;;;;;;0.50;0.40;;;4.30;99.90;;;;;;4860265;29;20244;-93
2020/12/26 02:16:13;;;;;;;0.20;0.20;;;4.30;99.90;;;;;;4844553;29;20188;-95
2020/12/26 02:18:40;;;;;;;0.20;0.20;;;4.30;99.90;;;;;;4862629;29;20317;-91
2020/12/26 02:21:06;;;;;;;1.90;0.40;;;4.30;99.90;;;;;;4840938;29;20244;-93
2020/12/26 02:23:35;;;;;;;2.27;0.63;;;4.30;99.90;;;;;;4844947;29;21300;-92
2020/12/26 02:26:01;;;;;;;0.50;0.50;;;4.20;99.90;;;;;;4844437;29;20845;-93
2020/12/26 02:28:27;;;;;;;0.20;0.20;;;4.20;99.90;;;;;;4841842;29;20239;-91
2020/12/26 02:30:56;;;;;;;0.10;0.10;;;4.20;99.90;;;;;;4807945;29;20208;-91
2020/12/26 02:33:22;;;;;;;0.40;0.40;;;4.20;99.90;;;;;;4839157;29;20217;-94
2020/12/26 02:35:49;;;;;;;0.40;0.40;;;4.20;99.90;;;;;;4838628;29;20229;-90
2020/12/26 02:38:15;;;;;;;2.10;0.73;;;4.20;99.90;;;;;;4841920;29;21032;-91
2020/12/26 02:40:42;;;;;;;0.20;0.20;;;4.10;99.90;;;;;;4858084;29;20664;-92
2020/12/26 02:43:25;;;;;;;0.67;0.53;;;4.10;99.90;;;;;;4859058;29;20193;-94
2020/12/26 02:45:55;;;;;;;1.27;0.70;;;4.10;99.90;;;;;;4827765;29;20193;-91
2020/12/26 02:48:21;;;;;;;0.20;0.20;;;4.10;99.90;;;;;;4844438;29;20188;-93
2020/12/26 02:50:48;;;;;;;0.93;0.80;;;4.10;99.90;;;;;;4842885;29;20221;-90
2020/12/26 02:53:15;;;;;;;0.30;0.30;;;4.10;99.90;;;;;;4843033;29;20315;-92
2020/12/26 02:55:40;;;;;;;0.27;0.27;;;4.10;99.90;;;;;;4841818;29;20225;-92
2020/12/26 02:58:06;;;;;;;0.30;0.30;;;4.10;99.90;;;;;;4819277;29;20288;-94
2020/12/26 03:00:32;;;;;;;0.20;0.20;;;4.00;99.90;;;;;;4829749;29;20283;-92
2020/12/26 03:02:58;;;;;;;0.53;0.53;;;4.00;99.90;;;;;;4843383;29;21010;-94
2020/12/26 03:05:25;;;;;;;0.37;0.37;;;4.00;99.90;;;;;;4829129;29;20272;-91
2020/12/26 03:07:51;;;;;;;0.40;0.40;;;4.00;99.90;;;;;;4857712;29;20220;-91
2020/12/26 03:10:17;;;;;;;0.37;0.37;;;4.00;99.90;;;;;;4856908;29;20247;-93
2020/12/26 03:12:43;;;;;;;1.90;1.80;;;4.00;99.90;;;;;;4830649;29;20299;-90
2020/12/26 03:15:09;;;;;;;0.20;0.20;;;4.00;99.90;;;;;;4843354;29;20219;-90
2020/12/26 03:17:35;;;;;;;0.30;0.30;;;4.00;99.90;;;;;;4858530;29;20350;-92
2020/12/26 03:20:03;;;;;;;0.10;0.10;;;4.00;99.90;;;;;;4825413;29;20322;-91
2020/12/26 03:22:29;;;;;;;0.80;0.80;;;4.00;99.90;;;;;;4860521;29;20231;-91
2020/12/26 03:24:55;;;;;;;0.30;0.30;;;4.00;99.90;;;;;;4827212;29;21097;-91
2020/12/26 03:27:22;;;;;;;0.73;0.70;;;4.00;99.90;;;;;;4845768;29;20203;-91
2020/12/26 03:29:49;;;;;;;0.40;0.40;;;4.00;99.90;;;;;;4859211;29;20232;-91
2020/12/26 03:32:15;;;;;;;0.50;0.50;;;4.00;99.90;;;;;;4841835;29;20279;-90
2020/12/26 03:34:41;;;;;;;9.33;0.70;;;4.00;99.90;;;;;;4856412;29;20266;-91
2020/12/26 03:37:07;;;;;;;0.33;0.33;;;4.00;99.90;;;;;;4842526;29;20221;-90
2020/12/26 03:39:35;;;;;;;0.20;0.20;;;4.00;99.90;;;;;;4859341;29;20199;-90
2020/12/26 03:42:12;;;;;;;8.70;0.73;;;4.00;99.90;;;;;;4841455;29;20216;-90
2020/12/26 03:44:39;;;;;;;0.30;0.30;;;3.90;99.90;;;;;;4843875;29;20216;-91
2020/12/26 03:47:06;;;;;;;1.53;0.47;;;3.90;99.90;;;;;;4825871;29;20339;-94
2020/12/26 03:49:32;;;;;;;1.10;0.50;;;3.90;99.90;;;;;;4840404;29;20314;-91
2020/12/26 03:51:58;;;;;;;0.57;0.30;;;3.80;99.90;;;;;;4828330;29;20244;-91
2020/12/26 03:54:24;;;;;;;0.53;0.53;;;3.80;99.90;;;;;;4859418;29;21676;-93
2020/12/26 03:56:50;;;;;;;3.57;0.67;;;3.80;99.90;;;;;;4828777;29;20224;-91
2020/12/26 03:59:19;;;;;;;0.40;0.30;;;3.80;99.90;;;;;;4840361;29;20220;-90
2020/12/26 04:01:45;;;;;;;1.80;0.70;;;3.80;99.90;;;;;;4859415;29;21010;-91
2020/12/26 04:04:13;;;;;;;0.70;0.70;;;3.80;99.90;;;;;;4856816;29;20239;-91
2020/12/26 04:06:43;;;;;;;0.40;0.40;;;3.80;99.90;;;;;;4828289;29;20197;-93
2020/12/26 04:09:09;;;;;;;0.73;0.73;;;3.80;99.90;;;;;;4844047;29;20295;-90
2020/12/26 04:11:35;;;;;;;1.20;0.90;;;3.90;99.90;;;;;;4840887;29;20320;-91
2020/12/26 04:14:00;;;;;;;0.80;0.80;;;4.00;99.90;;;;;;4843004;29;20713;-91
2020/12/26 04:16:26;;;;;;;1.03;0.87;;;4.10;99.90;;;;;;4828106;29;20235;-90
2020/12/26 04:18:52;;;;;;;1.17;1.07;;;4.10;99.90;;;;;;4826540;29;20192;-93
2020/12/26 04:21:22;;;;;;;0.70;0.67;;;4.10;99.90;;;;;;4859684;29;20240;-92
2020/12/26 04:23:49;;;;;;;2.63;1.23;;;4.20;99.90;;;;;;4844027;29;20232;-94
2020/12/26 04:26:15;;;;;;;14.17;0.80;;;4.20;99.90;;;;;;4841014;29;20327;-93
2020/12/26 04:28:40;;;;;;;0.67;0.67;;;4.20;99.90;;;;;;4820728;29;21179;-94
2020/12/26 04:31:09;;;;;;;0.40;0.40;;;4.20;99.90;;;;;;4853453;29;20220;-91
2020/12/26 04:33:35;;;;;;;0.63;0.50;;;4.20;99.90;;;;;;4838989;29;20640;-91
2020/12/26 04:36:01;;;;;;;3.10;0.80;;;4.20;99.90;;;;;;4837879;29;20369;-94
2020/12/26 04:38:27;;;;;;;0.97;0.97;;;4.20;99.90;;;;;;4852985;29;20224;-91
2020/12/26 04:40:53;;;;;;;0.60;0.60;;;4.30;99.90;;;;;;4839685;29;20307;-93
2020/12/26 04:43:19;;;;;;;0.50;0.50;;;4.30;99.90;;;;;;4838634;29;20347;-94
2020/12/26 04:45:45;;;;;;;1.20;1.20;;;4.30;99.90;;;;;;4824911;29;20303;-91
2020/12/26 04:48:15;;;;;;;2.30;1.00;;;4.40;99.90;;;;;;4837245;29;21019;-91
2020/12/26 04:50:49;;;;;;;0.80;0.57;;;4.40;99.90;;;;;;4839635;29;20230;-90
2020/12/26 04:53:18;;;;;;;0.80;0.80;;;4.40;99.90;;;;;;4825646;29;20239;-92
2020/12/26 04:55:50;;;;;;;1.17;1.07;;;4.40;99.90;;;;;;4855282;29;20304;-91
2020/12/26 04:58:17;;;;;;;0.77;0.67;;;4.40;99.90;;;;;;4857107;29;20224;-92
2020/12/26 05:00:44;;;;;;;1.27;1.20;;;4.40;99.90;;;;;;4842984;29;20197;-91
2020/12/26 05:03:11;;;;;;;6.50;1.70;;;4.40;99.90;;;;;;4827076;29;20314;-93
2020/12/26 05:05:39;;;;;;;2.33;1.17;;;4.30;99.90;;;;;;4855241;29;20231;-92
2020/12/26 05:08:06;;;;;;;2.50;2.00;;;4.40;99.90;;;;;;4841387;29;20252;-91
2020/12/26 05:10:33;;;;;;;1.17;0.67;;;4.40;99.90;;;;;;4826443;29;20262;-90
2020/12/26 05:13:00;;;;;;;0.70;0.70;;;4.40;99.90;;;;;;4854835;29;20301;-92
2020/12/26 05:15:26;;;;;;;1.30;1.03;;;4.50;99.90;;;;;;4858891;29;20192;-92
2020/12/26 05:17:52;;;;;;;2.17;1.70;;;4.50;99.90;;;;;;4842096;29;20224;-93
2020/12/26 05:20:21;;;;;;;2.20;1.03;;;4.60;99.90;;;;;;4858135;29;20619;-92
2020/12/26 05:22:47;;;;;;;14.63;0.70;;;4.60;99.90;;;;;;4839178;29;20235;-91
2020/12/26 05:25:13;;;;;;;0.70;0.70;;;4.70;99.90;;;;;;4842687;29;20219;-91
2020/12/26 05:27:38;;;;;;;0.90;0.70;;;4.80;99.90;;;;;;4825933;29;20526;-92
2020/12/26 05:30:05;;;;;;;0.47;0.47;;;4.80;99.90;;;;;;4839885;29;20694;-94
2020/12/26 05:32:32;;;;;;;1.10;0.80;;;4.90;99.90;;;;;;4830648;29;20300;-90
2020/12/26 05:35:06;;;;;;;0.77;0.73;;;4.80;99.90;;;;;;4842706;29;20280;-90
2020/12/26 05:37:32;;;;;;;1.23;0.60;;;4.90;99.90;;;;;;4857906;29;20246;-90
2020/12/26 05:40:00;;;;;;;2.97;1.53;;;4.90;99.90;;;;;;4838954;29;20196;-92
2020/12/26 05:42:27;;;;;;;0.60;0.57;;;4.90;99.90;;;;;;4839598;29;20189;-92
2020/12/26 05:45:06;;;;;;;0.37;0.37;;;4.90;99.90;;;;;;4840878;29;20266;-91
2020/12/26 05:47:31;;;;;;;0.90;0.90;;;5.00;99.90;;;;;;4857801;29;20356;-92
2020/12/26 05:49:57;;;;;;;2.03;1.10;;;5.00;99.90;;;;;;4825409;29;20216;-90
2020/12/26 05:52:27;;;;;;;4.40;1.47;;;5.00;99.90;;;;;;4826616;29;20518;-90
2020/12/26 05:54:53;;;;;;;0.83;0.83;;;5.00;99.90;;;;;;4841750;29;20317;-93
2020/12/26 05:57:20;;;;;;;1.97;0.90;;;5.00;99.90;;;;;;4841458;29;20619;-92
2020/12/26 05:59:50;;;;;;;5.20;1.97;;;5.00;99.90;;;;;;4821904;29;20232;-94
2020/12/26 06:02:18;;;;;;;0.70;0.70;;;5.00;99.90;;;;;;4841872;29;20303;-90
2020/12/26 06:04:51;;;;;;;0.90;0.90;;;5.10;99.90;;;;;;4855129;29;20256;-93
2020/12/26 06:07:45;;;;;;;0.43;0.43;;;5.10;99.90;;;;;;4839619;29;20231;-91
2020/12/26 06:10:11;;;;;;;0.80;0.80;;;5.10;99.90;;;;;;4840428;29;20228;-92
2020/12/26 06:12:36;;;;;;;0.87;0.87;;;5.10;99.90;;;;;;4842653;29;20738;-91
2020/12/26 06:15:03;;;;;;;0.87;0.87;;;5.10;99.90;;;;;;4825363;29;20228;-91
2020/12/26 06:17:33;;;;;;;1.90;1.17;;;5.20;99.90;;;;;;4854684;29;20228;-92
2020/12/26 06:20:00;;;;;;;1.00;1.00;;;5.20;99.90;;;;;;4840526;29;20267;-91
2020/12/26 06:22:50;;;;;;;3.67;2.10;;;5.20;99.90;;;;;;4840614;29;21451;-94
2020/12/26 06:25:21;;;;;;;1.10;1.03;;;5.20;99.90;;;;;;4827368;29;20252;-90
2020/12/26 06:27:58;;;;;;;1.07;0.97;;;5.20;99.90;;;;;;4845579;29;20180;-90
2020/12/26 06:30:24;;;;;;;1.00;1.00;;;5.20;99.90;;;;;;4845668;29;20242;-92
2020/12/26 06:32:50;;;;;;;1.77;1.67;;;5.30;99.90;;;;;;4857859;29;20698;-91
2020/12/26 06:35:18;;;;;;;0.63;0.60;;;5.30;99.90;;;;;;4842625;29;20279;-90
2020/12/26 06:37:45;;;;;;;1.00;1.00;;;5.30;99.90;;;;;;4861139;29;20224;-90
2020/12/26 06:40:26;;;;;;;0.63;0.63;;;5.30;99.90;;;;;;4843536;29;20663;-92
2020/12/26 06:42:51;;;;;;;1.63;1.20;;;5.40;99.90;;;;;;4844484;29;20700;-91
2020/12/26 06:45:35;;;;;;;2.03;1.23;;;5.30;99.90;;;;;;4815262;29;20646;-89
2020/12/26 06:48:02;;;;;;;2.93;1.37;;;5.30;99.90;;;;;;4843066;29;20545;-94
2020/12/26 06:50:30;;;;;;;0.50;0.50;;;5.40;99.90;;;;;;4846787;29;20232;-90
2020/12/26 06:52:56;;;;;;;2.50;0.90;;;5.40;99.90;;;;;;4843890;29;20311;-90
2020/12/26 06:55:40;;;;;;;1.97;0.97;;;5.40;99.90;;;;;;4856863;29;20311;-90
2020/12/26 06:58:07;;;;;;;3.07;1.20;;;5.50;99.90;;;;;;4830169;29;20189;-90
2020/12/26 07:00:33;;;;;;;3.43;0.77;;;5.50;99.90;;;;;;4830342;29;20205;-95
2020/12/26 07:03:21;;;;;;;6.57;1.13;;;5.50;99.90;;;;;;4828737;29;20228;-93
2020/12/26 07:05:48;;;;;;;0.67;0.60;;;5.50;99.90;;;;;;4824669;29;20224;-94
2020/12/26 07:08:25;;;;;;;0.70;0.70;;;5.60;99.90;;;;;;4839168;29;20242;-91
2020/12/26 07:10:52;;;;;;;0.40;0.40;;;5.60;99.90;;;;;;4837302;29;20251;-90
2020/12/26 07:13:51;;;;;;;0.23;0.23;;;5.60;99.90;;;;;;4840242;29;20236;-92
2020/12/26 07:16:38;;;;;;;1.70;1.17;;;5.50;99.90;;;;;;4821761;29;20223;-91
2020/12/26 07:19:30;;;;;;;2.77;0.83;;;5.50;99.90;;;;;;4843836;29;20196;-92
2020/12/26 07:22:03;;;;;;;1.23;0.93;;;5.50;99.90;;;;;;4835737;29;20338;-91
2020/12/26 07:24:43;;;;;;;3.30;1.03;;;5.40;99.90;;;;;;4843438;29;20215;-90
2020/12/26 07:27:13;;;;;;;1.03;1.03;;;5.50;99.90;;;;;;4840487;29;20224;-91
2020/12/26 07:30:01;;;;;;;1.43;0.63;;;5.50;99.90;;;;;;4840136;29;20239;-94
2020/12/26 07:32:39;;;;;;;0.87;0.53;;;5.50;99.90;;;;;;4859894;29;20232;-91
2020/12/26 07:35:14;;;;;;;0.50;0.50;;;5.50;99.90;;;;;;4845439;29;20235;-91
2020/12/26 07:37:42;;;;;;;1.20;1.10;;;5.50;99.90;;;;;;4840820;29;20280;-91
2020/12/26 07:40:08;;;;;;;2.23;0.50;;;5.60;99.90;;;;;;4840444;29;20231;-91
2020/12/26 07:42:34;;;;;;;0.40;0.40;;;5.60;99.90;;;;;;4829299;29;20192;-91
2020/12/26 07:45:14;;;;;;;1.47;0.60;;;5.70;99.90;;;;;;4842007;29;20247;-89
2020/12/26 07:47:42;;;;;;;2.07;1.50;;;5.80;99.90;;;;;;4840865;29;20239;-91
2020/12/26 07:50:09;;;;;;;12.33;5.20;;;5.80;99.90;;;;;;4858907;29;20236;-89
2020/12/26 07:52:35;;;;;;;1.27;0.97;;;5.90;99.90;;;;;;4829733;29;20227;-92
2020/12/26 07:55:03;;;;;;;2.13;1.97;;;5.90;99.90;;;;;;4842368;29;20211;-92
2020/12/26 07:57:29;;;;;;;4.37;0.57;;;5.90;99.90;;;;;;4832167;29;20600;-90
2020/12/26 07:59:55;;;;;;;2.77;1.43;;;5.90;99.90;;;;;;4842703;29;20220;-90
2020/12/26 08:02:22;;;;;;;4.80;2.37;;;6.00;99.90;;;;;;4845195;29;20231;-90
2020/12/26 08:04:48;;;;;;;0.80;0.80;;;6.00;99.90;;;;;;4849869;29;20223;-89
2020/12/26 08:07:16;;;;;;;0.80;0.80;;;6.10;99.90;;;;;;4858521;29;20240;-90
2020/12/26 08:09:49;;;;;;;1.53;1.43;;;6.10;99.90;;;;;;4843534;29;20370;-90
2020/12/26 08:12:15;;;;;;;2.03;1.00;;;6.20;99.90;;;;;;4842864;29;20693;-91
2020/12/26 08:14:41;;;;;;;1.40;1.20;;;6.20;99.90;;;;;;4842197;29;21232;-88
2020/12/26 08:17:07;;;;;;;1.70;0.90;;;6.20;99.90;;;;;;4827743;29;20231;-88
2020/12/26 08:19:34;;;;;;;2.47;0.53;;;6.20;99.90;;;;;;4841954;29;20228;-88
2020/12/26 08:22:02;;;;;;;0.27;0.27;;;6.20;99.90;;;;;;4857267;29;20243;-93
2020/12/26 08:24:30;;;;;;;12.33;0.80;;;6.30;99.90;;;;;;4828353;29;20215;-91
2020/12/26 08:26:56;;;;;;;1.87;0.93;;;6.30;99.90;;;;;;4843463;29;20245;-91
2020/12/26 08:29:28;;;;;;;2.00;1.27;;;6.30;99.90;;;;;;4859568;29;20518;-91
2020/12/26 08:32:11;;;;;;;1.03;0.80;;;6.30;99.90;;;;;;4843783;29;20224;-91
2020/12/26 08:34:37;;;;;;;1.53;1.07;;;6.30;99.90;;;;;;4843655;29;20243;-92
2020/12/26 08:37:11;;;;;;;1.73;1.60;;;6.30;99.90;;;;;;4843227;29;21157;-91
2020/12/26 08:39:39;;;;;;;2.00;1.93;;;6.30;99.90;;;;;;4859567;29;20184;-93
2020/12/26 08:42:12;;;;;;;1.93;0.60;;;6.30;99.90;;;;;;4857914;29;20220;-90
2020/12/26 08:44:37;;;;;;;0.57;0.57;;;6.30;99.90;;;;;;4842011;29;20223;-90
2020/12/26 08:47:06;;;;;;;7.53;0.87;;;6.30;99.90;;;;;;4823717;29;20250;-94
2020/12/26 08:49:32;;;;;;;3.63;1.07;;;6.40;99.90;;;;;;4842789;29;20225;-93
2020/12/26 08:52:00;;;;;;;0.50;0.50;;;6.40;99.90;;;;;;4861781;29;20192;-93
2020/12/26 08:54:26;;;;;;;1.00;1.00;;;6.40;99.90;;;;;;4839939;29;20284;-93
2020/12/26 08:56:52;;;;;;;1.73;1.20;;;6.40;99.90;;;;;;4843654;29;20705;-92
2020/12/26 08:59:28;;;;;;;2.83;0.90;;;6.40;99.90;;;;;;4829130;29;20311;-90
2020/12/26 09:01:55;;;;;;;0.20;0.20;;;6.50;99.90;;;;;;4813442;29;20223;-92
2020/12/26 09:04:21;;;;;;;0.33;0.33;;;6.40;99.90;;;;;;4841998;29;20225;-89
2020/12/26 09:06:47;;;;;;;1.97;1.00;;;6.50;99.90;;;;;;4843963;29;20208;-92
2020/12/26 09:09:20;;;;;;;0.70;0.70;;;6.40;99.90;;;;;;4844034;29;20236;-89
2020/12/26 09:11:47;;;;;;;0.37;0.37;;;6.40;99.90;;;;;;4841070;29;20224;-89
2020/12/26 09:14:19;;;;;;;0.83;0.77;;;6.40;99.90;;;;;;4842485;29;20813;-93
2020/12/26 09:16:46;;;;;;;2.87;0.60;;;6.50;99.90;;;;;;4826885;29;20698;-92
2020/12/26 09:19:12;;;;;;;0.60;0.60;;;6.50;99.90;;;;;;4824304;29;20682;-92
2020/12/26 09:21:38;;;;;;;0.43;0.43;;;6.50;99.90;;;;;;4814131;29;20735;-89
2020/12/26 09:24:19;;;;;;;0.50;0.50;;;6.50;99.90;;;;;;4824040;29;20240;-90
2020/12/26 09:26:46;;;;;;;0.50;0.50;;;6.50;99.90;;;;;;4841039;29;20219;-90
2020/12/26 09:29:21;;;;;;;7.17;0.90;;;6.50;99.90;;;;;;4857207;29;20330;-91
2020/12/26 09:31:47;;;;;;;4.90;0.97;;;6.60;99.90;;;;;;4859322;29;20833;-90
2020/12/26 09:34:20;;;;;;;3.43;0.53;;;6.60;99.90;;;;;;4825878;29;20260;-89
2020/12/26 09:36:47;;;;;;;1.77;0.87;;;6.60;99.90;;;;;;4841761;29;20196;-92
2020/12/26 09:39:14;;;;;;;0.73;0.47;;;6.60;99.90;;;;;;4823713;29;20217;-90
2020/12/26 09:41:47;;;;;;;0.47;0.47;;;6.70;99.90;;;;;;4840650;29;20216;-93
2020/12/26 09:44:13;;;;;;;0.50;0.50;;;6.70;99.90;;;;;;4840615;29;20235;-90
2020/12/26 09:46:40;;;;;;;2.67;1.40;;;6.70;99.90;;;;;;4845684;29;20227;-90
2020/12/26 09:49:07;;;;;;;1.07;1.07;;;6.70;99.90;;;;;;4827974;29;20272;-87
2020/12/26 09:51:33;;;;;;;1.07;0.53;;;6.70;99.90;;;;;;4857144;29;20829;-89
2020/12/26 09:53:58;;;;;;;0.97;0.67;;;6.80;99.90;;;;;;4808598;29;20224;-92
2020/12/26 09:56:24;;;;;;;0.60;0.50;;;6.80;99.90;;;;;;4838405;29;20246;-92
2020/12/26 09:58:50;;;;;;;1.00;0.90;;;6.80;99.90;;;;;;4822853;29;20316;-91
2020/12/26 10:01:17;;;;;;;6.40;0.50;;;6.80;99.90;;;;;;4825448;29;20687;-89
2020/12/26 10:03:44;;;;;;;0.30;0.30;;;6.80;99.90;;;;;;4826499;29;20204;-87
2020/12/26 10:06:15;;;;;;;1.80;0.40;;;6.80;99.90;;;;;;4842267;29;20220;-90
2020/12/26 10:08:44;;;;;;;1.90;0.53;;;6.80;99.90;;;;;;4843543;29;20220;-88
2020/12/26 10:11:18;;;;;;;2.53;1.13;;;6.80;99.90;;;;;;4826242;29;20264;-91
2020/12/26 10:13:45;;;;;;;0.27;0.27;;;6.80;99.90;;;;;;4842627;29;20240;-91
2020/12/26 10:16:11;;;;;;;0.30;0.30;;;6.80;99.90;;;;;;4827391;29;20249;-89
2020/12/26 10:18:38;;;;;;;0.20;0.20;;;6.80;99.90;;;;;;4844428;29;20983;-92
2020/12/26 10:21:04;;;;;;;0.77;0.77;;;6.80;99.90;;;;;;4843088;29;20246;-92
2020/12/26 10:23:30;;;;;;;0.93;0.53;;;6.80;99.90;;;;;;4858013;29;20239;-89
2020/12/26 10:26:06;;;;;;;0.20;0.20;;;6.70;99.90;;;;;;4826667;29;20217;-90
2020/12/26 10:28:32;;;;;;;1.77;0.50;;;6.70;99.90;;;;;;4842053;29;20224;-91
2020/12/26 10:30:59;;;;;;;0.27;0.20;;;6.80;99.90;;;;;;4854784;29;21034;-90
2020/12/26 10:33:25;;;;;;;0.50;0.40;;;6.70;99.90;;;;;;4828561;29;20223;-88
2020/12/26 10:35:51;;;;;;;0.30;0.30;;;6.80;99.90;;;;;;4857541;29;20228;-89
2020/12/26 10:38:17;;;;;;;0.87;0.67;;;6.80;99.90;;;;;;4840633;29;20285;-90
2020/12/26 10:40:43;;;;;;;2.37;0.67;;;6.80;99.90;;;;;;4828593;29;20224;-90
2020/12/26 10:43:08;;;;;;;1.20;0.30;;;6.80;99.90;;;;;;4830258;29;20650;-90
2020/12/26 10:45:34;;;;;;;0.40;0.40;;;6.90;99.90;;;;;;4830327;29;20964;-89
2020/12/26 10:48:00;;;;;;;0.33;0.33;;;6.90;99.90;;;;;;4843849;29;21180;-90
2020/12/26 10:50:26;;;;;;;1.03;0.87;;;6.90;99.90;;;;;;4827453;29;21066;-90
2020/12/26 10:52:51;;;;;;;0.30;0.30;;;6.90;99.90;;;;;;4843842;29;20348;-91
2020/12/26 10:55:17;;;;;;;2.10;1.10;;;6.90;99.90;;;;;;4840244;29;20263;-89
2020/12/26 10:57:43;;;;;;;0.40;0.40;;;6.90;99.90;;;;;;4827251;29;20654;-89
2020/12/26 11:00:10;;;;;;;1.83;1.23;;;6.90;99.90;;;;;;4842686;29;20288;-90
2020/12/26 11:02:36;;;;;;;0.60;0.60;;;6.90;99.90;;;;;;4860668;29;20260;-89
2020/12/26 11:05:03;;;;;;;0.70;0.70;;;6.90;99.90;;;;;;4844418;29;20228;-90
2020/12/26 11:07:29;;;;;;;1.50;0.83;;;6.90;99.90;;;;;;4844422;29;20312;-90
2020/12/26 11:09:55;;;;;;;0.60;0.57;;;6.90;99.90;;;;;;4835102;29;20303;-91
2020/12/26 11:12:21;;;;;;;0.37;0.37;;;6.90;99.90;;;;;;4836121;29;20184;-92
2020/12/26 11:14:47;;;;;;;0.90;0.67;;;6.80;99.90;;;;;;4832585;29;20296;-93
2020/12/26 11:17:13;;;;;;;0.77;0.77;;;6.70;99.90;;;;;;4847893;29;20260;-93
2020/12/26 11:19:40;;;;;;;1.60;1.50;;;6.60;99.90;;;;;;4832326;29;20848;-93
2020/12/26 11:22:06;;;;;;;1.97;1.37;;;6.60;99.90;;;;;;4847980;29;20236;-92
2020/12/26 11:24:32;;;;;;;1.70;0.83;;;6.60;99.90;;;;;;4850790;29;20200;-93
2020/12/26 11:26:58;;;;;;;1.53;0.60;;;6.50;99.90;;;;;;4817878;29;20248;-93
2020/12/26 11:29:23;;;;;;;3.90;2.07;;;6.50;99.90;;;;;;4850490;29;20693;-92
2020/12/26 11:31:49;;;;;;;0.87;0.87;;;6.50;99.90;;;;;;4834766;29;20306;-93
2020/12/26 11:34:15;;;;;;;1.43;1.17;;;6.50;99.90;;;;;;4833111;29;20242;-93
2020/12/26 11:36:41;;;;;;;1.90;1.23;;;6.50;99.90;;;;;;4835852;29;20203;-93
2020/12/26 11:39:09;;;;;;;0.80;0.80;;;6.50;99.90;;;;;;4833220;29;20228;-92
2020/12/26 11:41:36;;;;;;;0.97;0.90;;;6.50;99.90;;;;;;4848337;29;20209;-92
2020/12/26 11:44:03;;;;;;;1.17;0.93;;;6.50;99.90;;;;;;4848612;29;20676;-92
2020/12/26 11:46:29;;;;;;;1.90;1.03;;;6.40;99.90;;;;;;4847078;29;20906;-93
2020/12/26 11:48:55;;;;;;;2.87;1.00;;;6.40;99.90;;;;;;4844177;29;20340;-92
2020/12/26 11:51:21;;;;;;;5.53;0.90;;;6.40;99.90;;;;;;4848817;29;20639;-92
2020/12/26 11:53:47;;;;;;;0.90;0.90;;;6.40;99.90;;;;;;4866886;29;20244;-91
2020/12/26 11:56:15;;;;;;;1.20;1.10;;;6.50;99.90;;;;;;4861146;29;20318;-93
2020/12/26 11:58:42;;;;;;;1.70;1.03;;;6.50;99.90;;;;;;4843863;29;20228;-95
2020/12/26 12:01:09;;;;;;;3.40;1.00;;;6.50;99.90;;;;;;4860034;29;20635;-94
2020/12/26 12:03:38;;;;;;;1.90;0.60;;;6.40;99.90;;;;;;4863006;29;20192;-93
2020/12/26 12:06:04;;;;;;;2.60;1.20;;;6.30;99.90;;;;;;4860227;29;20244;-93
2020/12/26 12:08:30;;;;;;;1.03;0.93;;;6.30;99.90;;;;;;4858614;29;20987;-93
2020/12/26 12:10:59;;;;;;;0.70;0.70;;;6.30;99.90;;;;;;4861728;29;20227;-94
2020/12/26 12:13:25;;;;;;;1.27;0.90;;;6.20;99.90;;;;;;4860336;29;20240;-93
2020/12/26 12:15:50;;;;;;;1.87;1.73;;;6.20;99.90;;;;;;4843875;29;20192;-93
2020/12/26 12:18:18;;;;;;;1.70;1.20;;;6.20;99.90;;;;;;4860655;29;20212;-93
2020/12/26 12:20:44;;;;;;;1.00;0.90;;;6.10;99.90;;;;;;4827231;29;20270;-91
2020/12/26 12:23:10;;;;;;;1.70;1.60;;;6.10;99.90;;;;;;4843680;29;20338;-95
2020/12/26 12:25:39;;;;;;;0.70;0.60;;;6.00;99.90;;;;;;4848907;29;20220;-91
2020/12/26 12:28:07;;;;;;;0.87;0.87;;;6.00;99.90;;;;;;4838688;29;20192;-92
2020/12/26 12:30:33;;;;;;;1.57;1.37;;;6.00;99.90;;;;;;4844314;29;20188;-93
2020/12/26 12:33:03;;;;;;;1.83;1.40;;;6.00;99.90;;;;;;4845187;29;20228;-93
2020/12/26 12:35:29;;;;;;;4.37;1.47;;;5.90;99.90;;;;;;4827713;29;20240;-95
2020/12/26 12:37:57;;;;;;;0.87;0.87;;;5.90;99.90;;;;;;4841506;29;20604;-91
2020/12/26 12:40:25;;;;;;;1.20;1.03;;;5.80;99.90;;;;;;4859150;29;20312;-92
2020/12/26 12:43:04;;;;;;;2.50;1.70;;;5.80;99.90;;;;;;4844288;29;20188;-90
2020/12/26 12:45:30;;;;;;;1.20;1.10;;;5.80;99.90;;;;;;4843760;29;20268;-92
2020/12/26 12:47:56;;;;;;;2.63;1.20;;;5.90;99.90;;;;;;4841293;29;20232;-93
2020/12/26 12:50:22;;;;;;;1.63;0.97;;;5.90;99.90;;;;;;4841362;29;20231;-91
2020/12/26 12:52:48;;;;;;;1.10;1.10;;;5.90;99.90;;;;;;4839875;29;20331;-94
2020/12/26 12:55:14;;;;;;;2.40;1.90;;;5.90;99.90;;;;;;4857487;29;20232;-93
2020/12/26 12:57:39;;;;;;;2.53;2.33;;;5.80;99.90;;;;;;4842468;29;20191;-89
2020/12/26 13:00:05;;;;;;;2.07;1.07;;;5.80;99.90;;;;;;4842165;29;20251;-94
2020/12/26 13:02:33;;;;;;;1.87;1.00;;;5.70;99.90;;;;;;4841367;29;20235;-93